createdAt,value
2017-04-14T00:00:22.120Z,0
2017-04-14T00:01:22.129Z,0
2017-04-14T00:02:22.206Z,0
2017-04-14T00:03:22.182Z,0
2017-04-14T00:04:22.203Z,0
2017-04-14T00:05:22.245Z,0
2017-04-14T00:06:22.249Z,0
2017-04-14T00:07:22.311Z,0
2017-04-14T00:08:22.326Z,0
2017-04-14T00:09:22.352Z,0
2017-04-14T00:10:22.381Z,0
2017-04-14T00:11:22.393Z,0
2017-04-14T00:12:22.428Z,0
2017-04-14T00:13:22.449Z,0
2017-04-14T00:14:22.506Z,0
2017-04-14T00:15:22.523Z,0
2017-04-14T00:16:22.545Z,0
2017-04-14T00:17:22.569Z,0
2017-04-14T00:18:22.604Z,0
2017-04-14T00:19:22.620Z,0
2017-04-14T00:20:22.651Z,0
2017-04-14T00:21:22.688Z,0
2017-04-14T00:22:22.701Z,0
2017-04-14T00:23:22.894Z,0
2017-04-14T00:24:22.769Z,0
2017-04-14T00:25:22.798Z,0
2017-04-14T00:26:22.831Z,0
2017-04-14T00:27:22.851Z,0
2017-04-14T00:28:23.150Z,0
2017-04-14T00:29:22.905Z,0
2017-04-14T00:30:22.930Z,0
2017-04-14T00:31:22.970Z,0
2017-04-14T00:32:23.001Z,0
2017-04-14T00:33:23.119Z,0
2017-04-14T00:34:23.105Z,0
2017-04-14T00:35:23.074Z,0
2017-04-14T00:36:23.082Z,0
2017-04-14T00:37:23.121Z,0
2017-04-14T00:38:23.135Z,0
2017-04-14T00:39:23.188Z,0
2017-04-14T00:40:23.225Z,0
2017-04-14T00:41:23.236Z,0
2017-04-14T00:42:23.258Z,0
2017-04-14T00:43:23.296Z,0
2017-04-14T00:44:23.325Z,0
2017-04-14T00:45:23.350Z,0
2017-04-14T00:46:23.384Z,0
2017-04-14T00:47:23.390Z,0
2017-04-14T00:48:23.441Z,0
2017-04-14T00:49:23.460Z,0
2017-04-14T00:50:23.484Z,0
2017-04-14T00:51:23.522Z,0
2017-04-14T00:52:23.533Z,0
2017-04-14T00:53:23.583Z,0
2017-04-14T00:54:23.585Z,0
2017-04-14T00:55:23.631Z,0
2017-04-14T00:56:23.650Z,0
2017-04-14T00:57:23.683Z,0
2017-04-14T00:58:23.713Z,0
2017-04-14T00:59:23.748Z,0
2017-04-14T01:00:23.785Z,0
2017-04-14T01:01:23.786Z,0
2017-04-14T01:02:23.822Z,0
2017-04-14T01:03:23.832Z,0
2017-04-14T01:04:23.883Z,0
2017-04-14T01:05:23.880Z,0
2017-04-14T01:06:23.923Z,0
2017-04-14T01:07:23.932Z,0
2017-04-14T01:08:23.971Z,0
2017-04-14T01:09:24.020Z,0
2017-04-14T01:10:24.034Z,0
2017-04-14T01:11:24.050Z,0
2017-04-14T01:12:24.096Z,0
2017-04-14T01:13:24.127Z,0
2017-04-14T01:14:24.139Z,0
2017-04-14T01:15:24.177Z,0
2017-04-14T01:16:24.177Z,0
2017-04-14T01:17:24.232Z,0
2017-04-14T01:18:24.258Z,0
2017-04-14T01:19:24.265Z,0
2017-04-14T01:20:24.313Z,0
2017-04-14T01:21:24.327Z,0
2017-04-14T01:22:24.378Z,0
2017-04-14T01:23:24.383Z,0
2017-04-14T01:24:24.406Z,0
2017-04-14T01:25:24.443Z,0
2017-04-14T01:26:24.477Z,0
2017-04-14T01:27:24.477Z,0
2017-04-14T01:28:24.568Z,0
2017-04-14T01:29:24.572Z,0
2017-04-14T01:30:24.597Z,0
2017-04-14T01:31:24.585Z,0
2017-04-14T01:32:24.634Z,0
2017-04-14T01:33:24.669Z,0
2017-04-14T01:34:24.691Z,0
2017-04-14T01:35:24.707Z,0
2017-04-14T01:36:24.752Z,0
2017-04-14T01:37:24.782Z,0
2017-04-14T01:38:24.801Z,0
2017-04-14T01:39:24.839Z,0
2017-04-14T01:40:24.865Z,0
2017-04-14T01:41:24.877Z,0
2017-04-14T01:42:24.889Z,0
2017-04-14T01:43:24.956Z,0
2017-04-14T01:44:24.969Z,0
2017-04-14T01:45:25.000Z,0
2017-04-14T01:46:25.024Z,0
2017-04-14T01:47:25.038Z,0
2017-04-14T01:48:25.081Z,0
2017-04-14T01:49:25.107Z,0
2017-04-14T01:50:25.138Z,0
2017-04-14T01:51:25.163Z,0
2017-04-14T01:52:25.168Z,0
2017-04-14T01:53:25.225Z,0
2017-04-14T01:54:25.252Z,0
2017-04-14T01:55:25.276Z,0
2017-04-14T01:56:25.295Z,0
2017-04-14T01:57:25.321Z,0
2017-04-14T01:58:25.368Z,0
2017-04-14T01:59:25.393Z,0
2017-04-14T02:00:25.428Z,0
2017-04-14T02:01:25.494Z,0
2017-04-14T02:02:25.468Z,0
2017-04-14T02:03:25.491Z,0
2017-04-14T02:04:25.520Z,0
2017-04-14T02:05:25.542Z,0
2017-04-14T02:06:25.541Z,0
2017-04-14T02:07:25.594Z,0
2017-04-14T02:08:25.634Z,0
2017-04-14T02:09:25.662Z,0
2017-04-14T02:10:25.681Z,0
2017-04-14T02:11:25.695Z,0
2017-04-14T02:12:25.742Z,0
2017-04-14T02:13:25.740Z,0
2017-04-14T02:14:25.792Z,0
2017-04-14T02:15:25.795Z,0
2017-04-14T02:16:25.842Z,0
2017-04-14T02:17:25.865Z,0
2017-04-14T02:18:25.883Z,0
2017-04-14T02:19:25.921Z,0
2017-04-14T02:20:25.942Z,0
2017-04-14T02:21:25.948Z,0
2017-04-14T02:22:25.992Z,0
2017-04-14T02:23:26.041Z,0
2017-04-14T02:24:26.042Z,0
2017-04-14T02:25:26.088Z,0
2017-04-14T02:26:26.094Z,0
2017-04-14T02:27:26.146Z,0
2017-04-14T02:28:26.160Z,0
2017-04-14T02:29:26.194Z,0
2017-04-14T02:30:26.216Z,0
2017-04-14T02:31:26.248Z,0
2017-04-14T02:32:26.287Z,0
2017-04-14T02:33:26.305Z,0
2017-04-14T02:34:26.336Z,0
2017-04-14T02:35:26.342Z,0
2017-04-14T02:36:26.392Z,0
2017-04-14T02:38:10.745Z,0
2017-04-14T02:38:39.047Z,0
2017-04-14T02:39:39.088Z,0
2017-04-14T02:40:39.096Z,0
2017-04-14T02:41:39.122Z,0
2017-04-14T02:42:39.142Z,0
2017-04-14T02:43:39.191Z,0
2017-04-14T02:44:39.240Z,0
2017-04-14T02:45:39.247Z,0
2017-04-14T02:46:39.292Z,0
2017-04-14T02:47:39.300Z,0
2017-04-14T02:48:39.324Z,0
2017-04-14T02:49:39.349Z,0
2017-04-14T02:50:39.372Z,0
2017-04-14T02:51:39.401Z,0
2017-04-14T02:52:39.426Z,0
2017-04-14T02:53:39.455Z,0
2017-04-14T02:54:39.475Z,0
2017-04-14T02:55:39.496Z,0
2017-04-14T02:56:39.549Z,0
2017-04-14T02:57:39.560Z,0
2017-04-14T02:58:39.604Z,0
2017-04-14T02:59:39.592Z,0
2017-04-14T03:00:39.648Z,0
2017-04-14T03:01:39.654Z,0
2017-04-14T03:02:39.706Z,0
2017-04-14T03:03:39.738Z,0
2017-04-14T03:04:39.807Z,0
2017-04-14T03:05:39.779Z,0
2017-04-14T03:06:39.803Z,0
2017-04-14T03:07:39.824Z,0
2017-04-14T03:08:39.863Z,0
2017-04-14T03:09:39.878Z,0
2017-04-14T03:10:39.899Z,0
2017-04-14T03:11:39.941Z,0
2017-04-14T03:12:39.950Z,0
2017-04-14T03:13:40.047Z,0
2017-04-14T03:14:39.999Z,0
2017-04-14T03:15:40.045Z,0
2017-04-14T03:16:40.072Z,0
2017-04-14T03:17:40.100Z,0
2017-04-14T03:18:40.134Z,0
2017-04-14T03:19:40.158Z,0
2017-04-14T03:20:40.176Z,0
2017-04-14T03:21:40.209Z,0
2017-04-14T03:22:40.276Z,0
2017-04-14T03:23:40.289Z,0
2017-04-14T03:24:40.280Z,0
2017-04-14T03:25:40.297Z,0
2017-04-14T03:26:40.344Z,0
2017-04-14T03:27:40.404Z,0
2017-04-14T03:28:40.394Z,0
2017-04-14T03:29:40.397Z,0
2017-04-14T03:30:40.443Z,0
2017-04-14T03:31:40.464Z,0
2017-04-14T03:32:40.497Z,0
2017-04-14T03:33:40.544Z,0
2017-04-14T03:34:40.561Z,0
2017-04-14T03:35:40.600Z,0
2017-04-14T03:36:40.593Z,0
2017-04-14T03:37:40.637Z,0
2017-04-14T03:38:40.671Z,0
2017-04-14T03:39:40.695Z,0
2017-04-14T03:40:40.709Z,0
2017-04-14T03:41:40.755Z,0
2017-04-14T03:42:40.771Z,0
2017-04-14T03:43:40.849Z,0
2017-04-14T03:44:40.829Z,0
2017-04-14T03:45:40.838Z,0
2017-04-14T03:46:40.881Z,0
2017-04-14T03:47:40.921Z,0
2017-04-14T03:48:40.946Z,0
2017-04-14T03:49:40.952Z,0
2017-04-14T03:50:40.971Z,0
2017-04-14T03:51:41.025Z,0
2017-04-14T03:52:41.043Z,0
2017-04-14T03:53:41.091Z,0
2017-04-14T03:54:41.096Z,0
2017-04-14T03:55:41.117Z,0
2017-04-14T03:56:41.146Z,0
2017-04-14T03:57:41.236Z,0
2017-04-14T03:58:41.216Z,0
2017-04-14T03:59:41.228Z,0
2017-04-14T04:00:41.739Z,0
2017-04-14T04:01:41.280Z,0
2017-04-14T04:02:41.306Z,0
2017-04-14T04:03:41.332Z,5
2017-04-14T04:04:41.356Z,5
2017-04-14T04:05:41.374Z,5
2017-04-14T04:06:41.404Z,5
2017-04-14T04:07:41.481Z,5
2017-04-14T04:08:41.473Z,5
2017-04-14T04:09:41.494Z,5
2017-04-14T04:10:41.507Z,10
2017-04-14T04:11:41.539Z,10
2017-04-14T04:12:41.572Z,10
2017-04-14T04:13:41.589Z,10
2017-04-14T04:14:41.622Z,10
2017-04-14T04:15:41.641Z,15
2017-04-14T04:16:41.679Z,15
2017-04-14T04:17:41.676Z,15
2017-04-14T04:18:41.733Z,15
2017-04-14T04:19:41.761Z,20
2017-04-14T04:20:41.779Z,20
2017-04-14T04:21:41.803Z,20
2017-04-14T04:22:41.822Z,25
2017-04-14T04:23:41.891Z,25
2017-04-14T04:24:41.886Z,25
2017-04-14T04:25:41.920Z,30
2017-04-14T04:26:41.909Z,30
2017-04-14T04:27:41.955Z,30
2017-04-14T04:28:41.995Z,35
2017-04-14T04:29:42.031Z,35
2017-04-14T04:30:42.054Z,35
2017-04-14T04:31:42.057Z,40
2017-04-14T04:32:42.104Z,40
2017-04-14T04:33:42.130Z,45
2017-04-14T04:34:42.159Z,45
2017-04-14T04:35:42.164Z,50
2017-04-14T04:36:42.192Z,50
2017-04-14T04:37:42.239Z,55
2017-04-14T04:38:42.311Z,60
2017-04-14T04:39:42.297Z,60
2017-04-14T04:40:42.307Z,60
2017-04-14T04:41:42.322Z,65
2017-04-14T04:42:42.374Z,65
2017-04-14T04:43:42.397Z,70
2017-04-14T04:44:42.430Z,70
2017-04-14T04:45:42.452Z,70
2017-04-14T04:46:42.454Z,75
2017-04-14T04:47:42.508Z,75
2017-04-14T04:48:42.546Z,80
2017-04-14T04:49:42.565Z,80
2017-04-14T04:50:42.563Z,95
2017-04-14T04:51:42.595Z,105
2017-04-14T04:52:42.636Z,115
2017-04-14T04:53:42.660Z,115
2017-04-14T04:54:42.686Z,115
2017-04-14T04:55:42.716Z,110
2017-04-14T04:56:42.735Z,110
2017-04-14T04:57:42.782Z,105
2017-04-14T04:58:42.793Z,100
2017-04-14T04:59:42.803Z,105
2017-04-14T05:00:43.054Z,110
2017-04-14T05:01:42.853Z,110
2017-04-14T05:02:42.950Z,115
2017-04-14T05:03:42.971Z,125
2017-04-14T05:04:42.956Z,130
2017-04-14T05:05:42.978Z,130
2017-04-14T05:06:43.004Z,130
2017-04-14T05:07:43.017Z,135
2017-04-14T05:08:43.055Z,135
2017-04-14T05:09:43.094Z,140
2017-04-14T05:10:43.120Z,145
2017-04-14T05:11:43.139Z,150
2017-04-14T05:12:43.177Z,150
2017-04-14T05:13:43.205Z,155
2017-04-14T05:14:43.229Z,160
2017-04-14T05:15:43.260Z,165
2017-04-14T05:16:43.279Z,170
2017-04-14T05:17:43.310Z,185
2017-04-14T05:18:43.335Z,185
2017-04-14T05:19:43.365Z,185
2017-04-14T05:20:43.358Z,190
2017-04-14T05:21:43.428Z,190
2017-04-14T05:22:43.452Z,195
2017-04-14T05:23:43.476Z,205
2017-04-14T05:24:43.500Z,210
2017-04-14T05:25:43.532Z,225
2017-04-14T05:26:43.535Z,235
2017-04-14T05:27:43.581Z,250
2017-04-14T05:28:43.609Z,260
2017-04-14T05:29:43.628Z,270
2017-04-14T05:30:43.668Z,315
2017-04-14T05:31:43.663Z,385
2017-04-14T05:32:43.777Z,395
2017-04-14T05:33:43.746Z,385
2017-04-14T05:34:43.771Z,405
2017-04-14T05:35:43.810Z,490
2017-04-14T05:36:43.811Z,495
2017-04-14T05:37:43.871Z,480
2017-04-14T05:38:43.884Z,440
2017-04-14T05:39:43.919Z,450
2017-04-14T05:40:43.944Z,510
2017-04-14T05:41:43.953Z,565
2017-04-14T05:42:44.015Z,635
2017-04-14T05:43:44.038Z,665
2017-04-14T05:44:44.067Z,660
2017-04-14T05:45:44.091Z,625
2017-04-14T05:46:44.112Z,600
2017-04-14T05:47:44.146Z,605
2017-04-14T05:48:44.187Z,670
2017-04-14T05:49:44.202Z,785
2017-04-14T05:50:44.229Z,815
2017-04-14T05:51:44.270Z,750
2017-04-14T05:52:44.299Z,740
2017-04-14T05:53:44.331Z,785
2017-04-14T05:54:44.356Z,685
2017-04-14T05:55:44.373Z,790
2017-04-14T05:56:44.424Z,415
2017-04-14T05:57:44.458Z,935
2017-04-14T05:58:44.465Z,750
2017-04-14T05:59:44.520Z,905
2017-04-14T06:00:44.542Z,410
2017-04-14T06:01:44.568Z,900
2017-04-14T06:02:44.592Z,965
2017-04-14T06:03:44.635Z,990
2017-04-14T06:04:44.662Z,1005
2017-04-14T06:05:44.695Z,1030
2017-04-14T06:06:44.729Z,1065
2017-04-14T06:07:44.759Z,1035
2017-04-14T06:08:44.777Z,965
2017-04-14T06:09:44.838Z,955
2017-04-14T06:10:44.854Z,970
2017-04-14T06:11:44.921Z,1010
2017-04-14T06:12:44.915Z,1030
2017-04-14T06:13:44.935Z,1075
2017-04-14T06:14:44.982Z,1035
2017-04-14T06:15:45.012Z,395
2017-04-14T06:16:45.044Z,1115
2017-04-14T06:17:45.097Z,1155
2017-04-14T06:18:45.097Z,1190
2017-04-14T06:19:45.140Z,1245
2017-04-14T06:20:45.429Z,360
2017-04-14T06:21:45.207Z,575
2017-04-14T06:22:45.253Z,1165
2017-04-14T06:23:45.281Z,1195
2017-04-14T06:24:45.305Z,1200
2017-04-14T06:25:45.591Z,1185
2017-04-14T06:26:45.365Z,365
2017-04-14T06:27:45.392Z,850
2017-04-14T06:28:45.454Z,1245
2017-04-14T06:29:45.472Z,1255
2017-04-14T06:30:45.755Z,490
2017-04-14T06:31:45.535Z,325
2017-04-14T06:32:45.597Z,1235
2017-04-14T06:33:45.616Z,1315
2017-04-14T06:34:45.638Z,1345
2017-04-14T06:35:45.834Z,1330
2017-04-14T06:36:45.726Z,1300
2017-04-14T06:37:45.741Z,1320
2017-04-14T06:38:45.781Z,1360
2017-04-14T06:39:45.806Z,1280
2017-04-14T06:40:45.840Z,1340
2017-04-14T06:41:45.873Z,1345
2017-04-14T06:42:45.918Z,1375
2017-04-14T06:43:45.945Z,1475
2017-04-14T06:44:45.974Z,1475
2017-04-14T06:45:46.053Z,1500
2017-04-14T06:46:46.044Z,1590
2017-04-14T06:47:46.070Z,1150
2017-04-14T06:48:46.114Z,1590
2017-04-14T06:49:46.162Z,1640
2017-04-14T06:50:46.178Z,1660
2017-04-14T06:51:46.197Z,1690
2017-04-14T06:52:46.254Z,1760
2017-04-14T06:53:46.293Z,1245
2017-04-14T06:54:46.319Z,450
2017-04-14T06:55:46.335Z,885
2017-04-14T06:56:46.383Z,1615
2017-04-14T06:57:46.427Z,1275
2017-04-14T06:58:46.444Z,1655
2017-04-14T06:59:46.493Z,1570
2017-04-14T07:00:46.554Z,1640
2017-04-14T07:01:46.568Z,1675
2017-04-14T07:02:46.596Z,1440
2017-04-14T07:03:46.629Z,1425
2017-04-14T07:04:46.648Z,1580
2017-04-14T07:05:46.703Z,1635
2017-04-14T07:06:46.922Z,1645
2017-04-14T07:07:46.797Z,1625
2017-04-14T07:08:46.841Z,1685
2017-04-14T07:09:46.840Z,1345
2017-04-14T07:10:46.887Z,1620
2017-04-14T07:11:46.910Z,1685
2017-04-14T07:12:47.009Z,1680
2017-04-14T07:13:47.006Z,1770
2017-04-14T07:14:47.037Z,1370
2017-04-14T07:15:47.072Z,1685
2017-04-14T07:16:47.133Z,1790
2017-04-14T07:17:47.161Z,1825
2017-04-14T07:18:47.417Z,1900
2017-04-14T07:19:47.207Z,1070
2017-04-14T07:20:47.279Z,1800
2017-04-14T07:21:47.301Z,1795
2017-04-14T07:22:47.392Z,1630
2017-04-14T07:23:47.407Z,1675
2017-04-14T07:24:47.405Z,1770
2017-04-14T07:25:47.464Z,1735
2017-04-14T07:26:47.509Z,1735
2017-04-14T07:27:47.578Z,1715
2017-04-14T07:28:47.718Z,1650
2017-04-14T07:29:48.026Z,1660
2017-04-14T07:30:47.653Z,1765
2017-04-14T07:31:47.652Z,1810
2017-04-14T07:32:47.657Z,1845
2017-04-14T07:33:47.710Z,1885
2017-04-14T07:34:47.750Z,1690
2017-04-14T07:35:47.785Z,1590
2017-04-14T07:36:47.809Z,1500
2017-04-14T07:37:47.876Z,1665
2017-04-14T07:38:47.909Z,1715
2017-04-14T07:39:47.948Z,1585
2017-04-14T07:40:47.971Z,1375
2017-04-14T07:41:48.006Z,1390
2017-04-14T07:42:48.053Z,1455
2017-04-14T07:43:48.070Z,1480
2017-04-14T07:44:48.111Z,1460
2017-04-14T07:45:48.149Z,1440
2017-04-14T07:46:48.211Z,970
2017-04-14T07:47:48.256Z,1395
2017-04-14T07:48:48.295Z,1210
2017-04-14T07:49:48.310Z,1060
2017-04-14T07:50:48.361Z,1005
2017-04-14T07:51:48.403Z,895
2017-04-14T07:52:48.414Z,930
2017-04-14T07:53:48.473Z,840
2017-04-14T07:54:48.505Z,1500
2017-04-14T07:55:48.535Z,1020
2017-04-14T07:56:48.568Z,935
2017-04-14T07:57:48.623Z,945
2017-04-14T07:58:48.650Z,1040
2017-04-14T07:59:48.666Z,800
2017-04-14T08:00:48.784Z,830
2017-04-14T08:01:48.782Z,1405
2017-04-14T08:02:48.813Z,785
2017-04-14T08:03:48.838Z,970
2017-04-14T08:04:48.866Z,1450
2017-04-14T08:05:48.919Z,685
2017-04-14T08:06:48.962Z,835
2017-04-14T08:07:48.991Z,705
2017-04-14T08:08:49.033Z,775
2017-04-14T08:09:49.069Z,785
2017-04-14T08:10:49.088Z,800
2017-04-14T08:11:49.139Z,825
2017-04-14T08:12:49.167Z,825
2017-04-14T08:13:49.227Z,880
2017-04-14T08:14:49.265Z,1445
2017-04-14T08:15:49.275Z,1340
2017-04-14T08:16:49.327Z,1325
2017-04-14T08:17:49.362Z,1095
2017-04-14T08:18:49.400Z,1085
2017-04-14T08:19:49.428Z,1220
2017-04-14T08:20:49.458Z,1305
2017-04-14T08:21:49.498Z,1120
2017-04-14T08:22:49.538Z,1335
2017-04-14T08:23:49.591Z,1245
2017-04-14T08:24:49.615Z,1405
2017-04-14T08:25:49.702Z,1595
2017-04-14T08:26:49.669Z,755
2017-04-14T08:27:49.745Z,1295
2017-04-14T08:28:49.759Z,1295
2017-04-14T08:29:49.801Z,1185
2017-04-14T08:30:49.808Z,1215
2017-04-14T08:31:49.868Z,1300
2017-04-14T08:32:49.907Z,1365
2017-04-14T08:33:49.938Z,1530
2017-04-14T08:34:49.992Z,1200
2017-04-14T08:35:50.018Z,1305
2017-04-14T08:36:50.059Z,1355
2017-04-14T08:37:50.108Z,1235
2017-04-14T08:38:50.120Z,745
2017-04-14T08:39:50.173Z,1445
2017-04-14T08:40:50.214Z,2000
2017-04-14T08:41:50.237Z,1985
2017-04-14T08:42:50.285Z,1915
2017-04-14T08:43:50.328Z,1870
2017-04-14T08:44:50.365Z,1975
2017-04-14T08:45:50.396Z,2025
2017-04-14T08:46:50.442Z,1320
2017-04-14T08:47:50.484Z,1950
2017-04-14T08:48:50.527Z,1825
2017-04-14T08:49:50.551Z,905
2017-04-14T08:50:50.609Z,825
2017-04-14T08:51:50.615Z,1130
2017-04-14T08:52:50.670Z,2405
2017-04-14T08:53:50.724Z,2320
2017-04-14T08:54:50.736Z,900
2017-04-14T08:55:50.769Z,855
2017-04-14T08:56:50.822Z,745
2017-04-14T08:57:50.865Z,1340
2017-04-14T08:58:50.913Z,2140
2017-04-14T08:59:50.998Z,820
2017-04-14T09:00:50.978Z,825
2017-04-14T09:01:51.021Z,680
2017-04-14T09:02:51.068Z,570
2017-04-14T09:03:51.110Z,575
2017-04-14T09:04:51.152Z,810
2017-04-14T09:05:51.171Z,1340
2017-04-14T09:06:51.219Z,720
2017-04-14T09:07:51.264Z,615
2017-04-14T09:08:51.305Z,540
2017-04-14T09:09:51.337Z,485
2017-04-14T09:10:51.366Z,550
2017-04-14T09:11:51.453Z,520
2017-04-14T09:12:51.439Z,420
2017-04-14T09:13:51.475Z,495
2017-04-14T09:14:51.520Z,645
2017-04-14T09:15:51.569Z,690
2017-04-14T09:16:51.599Z,670
2017-04-14T09:17:51.623Z,1900
2017-04-14T09:18:51.683Z,705
2017-04-14T09:19:51.713Z,595
2017-04-14T09:20:51.769Z,655
2017-04-14T09:21:51.787Z,765
2017-04-14T09:22:51.824Z,845
2017-04-14T09:23:51.869Z,1360
2017-04-14T09:24:51.887Z,745
2017-04-14T09:25:51.920Z,555
2017-04-14T09:26:51.971Z,550
2017-04-14T09:27:52.013Z,625
2017-04-14T09:28:52.017Z,710
2017-04-14T09:29:52.092Z,1785
2017-04-14T09:30:52.113Z,1870
2017-04-14T09:31:52.130Z,760
2017-04-14T09:32:52.169Z,1100
2017-04-14T09:33:52.221Z,2160
2017-04-14T09:34:52.234Z,2160
2017-04-14T09:35:52.296Z,2280
2017-04-14T09:36:52.339Z,2125
2017-04-14T09:37:52.374Z,2410
2017-04-14T09:38:52.406Z,2280
2017-04-14T09:39:52.451Z,2295
2017-04-14T09:40:52.479Z,2540
2017-04-14T09:41:52.511Z,2940
2017-04-14T09:42:52.566Z,2805
2017-04-14T09:43:52.609Z,2785
2017-04-14T09:44:52.624Z,2495
2017-04-14T09:45:52.681Z,2675
2017-04-14T09:46:52.725Z,1845
2017-04-14T09:47:52.765Z,2255
2017-04-14T09:48:52.814Z,2180
2017-04-14T09:49:52.848Z,2100
2017-04-14T09:50:52.889Z,2445
2017-04-14T09:51:52.929Z,2395
2017-04-14T09:52:52.972Z,2280
2017-04-14T09:53:53.014Z,2135
2017-04-14T09:54:53.059Z,1970
2017-04-14T09:55:53.074Z,1965
2017-04-14T09:56:53.131Z,1350
2017-04-14T09:57:53.172Z,1240
2017-04-14T09:58:53.228Z,1280
2017-04-14T09:59:53.261Z,1290
2017-04-14T10:00:53.326Z,1170
2017-04-14T10:01:53.348Z,1070
2017-04-14T10:02:53.376Z,1010
2017-04-14T10:03:53.423Z,1035
2017-04-14T10:04:53.475Z,750
2017-04-14T10:05:53.504Z,950
2017-04-14T10:06:53.551Z,1040
2017-04-14T10:07:53.604Z,1025
2017-04-14T10:08:53.648Z,1020
2017-04-14T10:09:53.675Z,1110
2017-04-14T10:10:53.729Z,1210
2017-04-14T10:11:53.769Z,1220
2017-04-14T10:12:53.807Z,1095
2017-04-14T10:13:53.846Z,975
2017-04-14T10:14:53.900Z,760
2017-04-14T10:15:53.926Z,1040
2017-04-14T10:16:53.976Z,990
2017-04-14T10:17:53.991Z,975
2017-04-14T10:18:54.050Z,975
2017-04-14T10:19:54.080Z,925
2017-04-14T10:20:54.132Z,930
2017-04-14T10:21:54.172Z,900
2017-04-14T10:22:54.220Z,975
2017-04-14T10:23:54.246Z,995
2017-04-14T10:24:54.299Z,970
2017-04-14T10:25:54.350Z,920
2017-04-14T10:26:54.381Z,760
2017-04-14T10:27:54.407Z,955
2017-04-14T10:28:54.462Z,855
2017-04-14T10:29:54.506Z,960
2017-04-14T10:30:54.536Z,935
2017-04-14T10:31:54.585Z,930
2017-04-14T10:32:54.632Z,805
2017-04-14T10:33:54.658Z,920
2017-04-14T10:34:54.767Z,585
2017-04-14T10:35:54.730Z,540
2017-04-14T10:36:54.780Z,645
2017-04-14T10:37:54.808Z,725
2017-04-14T10:38:54.838Z,700
2017-04-14T10:39:54.911Z,635
2017-04-14T10:40:54.936Z,830
2017-04-14T10:41:54.973Z,915
2017-04-14T10:42:55.012Z,975
2017-04-14T10:43:55.061Z,930
2017-04-14T10:44:55.091Z,635
2017-04-14T10:45:55.134Z,670
2017-04-14T10:46:55.183Z,605
2017-04-14T10:47:55.202Z,595
2017-04-14T10:48:55.239Z,500
2017-04-14T10:49:55.291Z,475
2017-04-14T10:50:55.305Z,455
2017-04-14T10:51:55.361Z,425
2017-04-14T10:52:55.399Z,460
2017-04-14T10:53:55.434Z,510
2017-04-14T10:54:55.466Z,505
2017-04-14T10:55:55.489Z,550
2017-04-14T10:56:55.531Z,585
2017-04-14T10:57:55.586Z,735
2017-04-14T10:58:55.623Z,540
2017-04-14T10:59:55.650Z,485
2017-04-14T11:00:55.731Z,470
2017-04-14T11:01:55.713Z,465
2017-04-14T11:02:55.772Z,440
2017-04-14T11:03:55.820Z,820
2017-04-14T11:04:55.839Z,560
2017-04-14T11:05:55.873Z,545
2017-04-14T11:06:55.909Z,560
2017-04-14T11:07:55.961Z,535
2017-04-14T11:08:55.985Z,515
2017-04-14T11:09:56.009Z,520
2017-04-14T11:10:56.043Z,545
2017-04-14T11:11:56.087Z,545
2017-04-14T11:12:56.124Z,605
2017-04-14T11:13:56.169Z,485
2017-04-14T11:14:56.205Z,460
2017-04-14T11:15:56.243Z,475
2017-04-14T11:16:56.267Z,495
2017-04-14T11:17:56.321Z,465
2017-04-14T11:18:56.358Z,465
2017-04-14T11:19:56.369Z,495
2017-04-14T11:20:56.426Z,560
2017-04-14T11:21:56.453Z,540
2017-04-14T11:22:56.494Z,570
2017-04-14T11:23:56.530Z,525
2017-04-14T11:24:56.570Z,495
2017-04-14T11:25:56.617Z,510
2017-04-14T11:26:56.628Z,485
2017-04-14T11:27:56.677Z,580
2017-04-14T11:28:56.710Z,535
2017-04-14T11:29:56.732Z,445
2017-04-14T11:30:56.767Z,390
2017-04-14T11:31:56.814Z,380
2017-04-14T11:32:56.859Z,355
2017-04-14T11:33:56.882Z,320
2017-04-14T11:34:56.925Z,285
2017-04-14T11:35:56.938Z,235
2017-04-14T11:36:56.982Z,225
2017-04-14T11:37:57.028Z,280
2017-04-14T11:38:57.074Z,375
2017-04-14T11:39:57.097Z,455
2017-04-14T11:40:57.126Z,475
2017-04-14T11:41:57.169Z,475
2017-04-14T11:42:57.193Z,465
2017-04-14T11:43:57.220Z,485
2017-04-14T11:44:57.270Z,515
2017-04-14T11:45:57.308Z,510
2017-04-14T11:46:57.338Z,510
2017-04-14T11:47:57.371Z,505
2017-04-14T11:48:57.403Z,440
2017-04-14T11:49:57.431Z,395
2017-04-14T11:50:57.463Z,395
2017-04-14T11:51:57.508Z,430
2017-04-14T11:52:57.543Z,435
2017-04-14T11:53:57.570Z,415
2017-04-14T11:54:57.602Z,390
2017-04-14T11:55:57.646Z,380
2017-04-14T11:56:57.694Z,340
2017-04-14T11:57:57.765Z,310
2017-04-14T11:58:57.745Z,365
2017-04-14T11:59:57.776Z,385
2017-04-14T12:00:57.822Z,335
2017-04-14T12:01:57.840Z,285
2017-04-14T12:02:57.931Z,265
2017-04-14T12:03:57.905Z,300
2017-04-14T12:04:57.957Z,460
2017-04-14T12:05:57.992Z,495
2017-04-14T12:06:58.028Z,515
2017-04-14T12:07:58.070Z,480
2017-04-14T12:08:58.100Z,485
2017-04-14T12:09:58.129Z,490
2017-04-14T12:10:58.161Z,515
2017-04-14T12:11:58.195Z,530
2017-04-14T12:12:58.237Z,510
2017-04-14T12:13:58.278Z,550
2017-04-14T12:14:58.289Z,530
2017-04-14T12:15:58.329Z,500
2017-04-14T12:16:58.355Z,455
2017-04-14T12:17:58.385Z,415
2017-04-14T12:18:58.478Z,360
2017-04-14T12:19:58.467Z,325
2017-04-14T12:20:58.505Z,305
2017-04-14T12:21:58.531Z,300
2017-04-14T12:22:58.571Z,345
2017-04-14T12:23:58.583Z,425
2017-04-14T12:24:58.635Z,455
2017-04-14T12:25:58.873Z,450
2017-04-14T12:26:58.714Z,415
2017-04-14T12:27:58.742Z,400
2017-04-14T12:28:58.778Z,360
2017-04-14T12:29:58.811Z,330
2017-04-14T12:30:58.835Z,325
2017-04-14T12:31:58.879Z,330
2017-04-14T12:32:58.915Z,345
2017-04-14T12:33:58.953Z,395
2017-04-14T12:34:58.969Z,405
2017-04-14T12:35:59.016Z,445
2017-04-14T12:36:59.049Z,445
2017-04-14T12:37:59.071Z,430
2017-04-14T12:38:59.118Z,400
2017-04-14T12:39:59.130Z,390
2017-04-14T12:40:59.174Z,395
2017-04-14T12:41:59.235Z,435
2017-04-14T12:42:59.259Z,460
2017-04-14T12:43:59.290Z,420
2017-04-14T12:44:59.324Z,380
2017-04-14T12:45:59.348Z,360
2017-04-14T12:46:59.383Z,350
2017-04-14T12:47:59.441Z,390
2017-04-14T12:48:59.534Z,440
2017-04-14T12:49:59.489Z,485
2017-04-14T12:50:59.570Z,545
2017-04-14T12:51:59.544Z,475
2017-04-14T12:52:59.600Z,465
2017-04-14T12:53:59.632Z,460
2017-04-14T12:54:59.662Z,455
2017-04-14T12:55:59.691Z,445
2017-04-14T12:56:59.738Z,440
2017-04-14T12:57:59.767Z,425
2017-04-14T12:58:59.793Z,450
2017-04-14T12:59:59.838Z,470
2017-04-14T13:00:59.866Z,460
2017-04-14T13:01:59.884Z,455
2017-04-14T13:02:59.932Z,445
2017-04-14T13:03:59.965Z,410
2017-04-14T13:04:59.993Z,405
2017-04-14T13:06:00.098Z,420
2017-04-14T13:07:00.094Z,440
2017-04-14T13:08:00.095Z,435
2017-04-14T13:09:00.193Z,420
2017-04-14T13:10:00.179Z,415
2017-04-14T13:11:00.219Z,415
2017-04-14T13:12:00.237Z,400
2017-04-14T13:13:00.292Z,380
2017-04-14T13:14:00.311Z,335
2017-04-14T13:15:00.345Z,290
2017-04-14T13:16:00.372Z,260
2017-04-14T13:17:00.412Z,205
2017-04-14T13:18:00.444Z,175
2017-04-14T13:19:00.491Z,160
2017-04-14T13:20:00.533Z,160
2017-04-14T13:21:00.561Z,160
2017-04-14T13:22:00.593Z,165
2017-04-14T13:23:00.621Z,175
2017-04-14T13:24:00.669Z,200
2017-04-14T13:25:00.696Z,220
2017-04-14T13:26:00.727Z,225
2017-04-14T13:27:00.746Z,240
2017-04-14T13:28:00.810Z,235
2017-04-14T13:29:00.838Z,225
2017-04-14T13:30:00.841Z,250
2017-04-14T13:31:00.943Z,285
2017-04-14T13:32:00.930Z,300
2017-04-14T13:33:00.943Z,315
2017-04-14T13:34:01.047Z,320
2017-04-14T13:35:01.063Z,320
2017-04-14T13:36:01.058Z,300
2017-04-14T13:37:01.140Z,305
2017-04-14T13:38:01.121Z,305
2017-04-14T13:39:01.176Z,310
2017-04-14T13:40:01.241Z,335
2017-04-14T13:41:01.372Z,335
2017-04-14T13:42:01.248Z,310
2017-04-14T13:43:01.304Z,295
2017-04-14T13:44:01.318Z,280
2017-04-14T13:45:01.364Z,285
2017-04-14T13:46:01.545Z,285
2017-04-14T13:47:01.465Z,250
2017-04-14T13:48:01.449Z,245
2017-04-14T13:49:01.500Z,225
2017-04-14T13:50:01.522Z,215
2017-04-14T13:51:01.660Z,215
2017-04-14T13:52:01.592Z,210
2017-04-14T13:53:01.677Z,220
2017-04-14T13:54:01.651Z,230
2017-04-14T13:55:01.693Z,270
2017-04-14T13:56:01.805Z,265
2017-04-14T13:57:01.764Z,285
2017-04-14T13:58:01.802Z,285
2017-04-14T13:59:01.832Z,260